Time;durP1;ratioP1;P1;durP2;ratioP2;P2;SDS_P1;SDS_P2;PMS_P1;PMS_P2;Temp;Humidity;BMP_temperature;BMP_pressure;BME280_temperature;BME280_humidity;BME280_pressure;Samples;Min_cycle;Max_cycle;Signal;HPM_P1;HPM_P2
2022/09/16 00:01:50;;;;;;;4.70;0.50;;;12.20;82.20;;;;;;4971776;28;20642;-82
2022/09/16 00:04:17;;;;;;;3.13;0.30;;;12.20;82.20;;;;;;4988424;28;20055;-83
2022/09/16 00:06:45;;;;;;;6.35;0.70;;;12.20;82.20;;;;;;4972291;28;20079;-83
2022/09/16 00:09:13;;;;;;;5.03;0.50;;;12.20;82.20;;;;;;4971554;28;20142;-83
2022/09/16 00:11:40;;;;;;;4.80;0.50;;;12.30;82.10;;;;;;4971618;28;20126;-83
2022/09/16 00:14:07;;;;;;;3.50;0.30;;;12.30;82.10;;;;;;4972096;28;20517;-83
2022/09/16 00:16:34;;;;;;;4.87;0.40;;;12.30;82.20;;;;;;4972061;28;20487;-83
2022/09/16 00:19:02;;;;;;;3.17;0.60;;;12.30;81.90;;;;;;4971281;28;20087;-82
2022/09/16 00:21:29;;;;;;;4.97;0.50;;;12.30;82.20;;;;;;4972231;28;20059;-82
2022/09/16 00:23:57;;;;;;;2.70;0.32;;;12.30;82.10;;;;;;4987540;28;20063;-83
2022/09/16 00:26:25;;;;;;;4.40;0.40;;;12.30;82.10;;;;;;4972015;28;20145;-83
2022/09/16 00:28:52;;;;;;;3.27;0.50;;;12.30;82.10;;;;;;4955342;28;20062;-83
2022/09/16 00:31:19;;;;;;;3.08;0.38;;;12.30;82.30;;;;;;4971525;28;20055;-83
2022/09/16 00:33:46;;;;;;;1.95;0.30;;;12.30;82.40;;;;;;4971775;28;20051;-82
2022/09/16 00:36:15;;;;;;;4.90;0.40;;;12.30;82.50;;;;;;4987613;28;20133;-83
2022/09/16 00:38:42;;;;;;;4.82;0.40;;;12.30;82.70;;;;;;4971456;28;20040;-83
2022/09/16 00:41:15;;;;;;;4.27;0.40;;;12.30;82.50;;;;;;4971342;28;20060;-83
2022/09/16 00:43:54;;;;;;;6.03;0.50;;;12.20;82.60;;;;;;4971362;28;20158;-83
2022/09/16 00:46:26;;;;;;;4.43;0.63;;;12.20;82.90;;;;;;4955537;28;20204;-83
2022/09/16 00:48:53;;;;;;;5.47;1.02;;;12.20;83.40;;;;;;4970990;28;20537;-83
2022/09/16 00:51:21;;;;;;;4.53;0.70;;;12.20;83.00;;;;;;4987784;28;20047;-83
2022/09/16 00:53:55;;;;;;;4.10;0.60;;;12.20;83.00;;;;;;4987392;28;20055;-83
2022/09/16 00:56:26;;;;;;;4.38;0.70;;;12.20;83.00;;;;;;4954866;28;20055;-83
2022/09/16 00:59:02;;;;;;;5.65;0.90;;;12.20;83.20;;;;;;4971069;28;20190;-83
2022/09/16 01:01:30;;;;;;;4.82;0.70;;;12.20;83.30;;;;;;4953996;28;20062;-83
2022/09/16 01:04:01;;;;;;;3.33;0.38;;;12.10;83.50;;;;;;4970989;28;20541;-83
2022/09/16 01:06:29;;;;;;;3.03;0.47;;;12.10;83.10;;;;;;4987178;28;20061;-83
2022/09/16 01:08:57;;;;;;;5.90;0.60;;;12.10;83.30;;;;;;4970982;28;20058;-83
2022/09/16 01:11:24;;;;;;;2.70;0.50;;;12.10;83.00;;;;;;4955262;28;20062;-83
2022/09/16 01:13:53;;;;;;;4.68;0.50;;;12.20;83.10;;;;;;4970925;28;20055;-83
2022/09/16 01:16:29;;;;;;;4.03;0.50;;;12.10;83.10;;;;;;4971042;28;20134;-83
2022/09/16 01:19:02;;;;;;;3.43;0.33;;;12.10;83.20;;;;;;4971142;28;20047;-83
2022/09/16 01:21:40;;;;;;;5.38;0.88;;;12.20;83.10;;;;;;4970876;28;20572;-83
2022/09/16 01:24:34;;;;;;;4.18;0.50;;;12.20;83.20;;;;;;4986399;28;20118;-83
2022/09/16 01:27:29;;;;;;;6.45;1.40;;;12.20;83.00;;;;;;4986894;28;20111;-83
2022/09/16 01:30:21;;;;;;;12.85;2.17;;;12.20;82.90;;;;;;4969130;28;20055;-83
2022/09/16 01:33:03;;;;;;;4.40;0.70;;;12.20;82.80;;;;;;4985317;28;20590;-83
2022/09/16 01:35:47;;;;;;;4.55;0.40;;;12.20;82.60;;;;;;4986941;28;20567;-84
2022/09/16 01:38:28;;;;;;;2.90;0.30;;;12.20;82.60;;;;;;4985835;28;20058;-84
2022/09/16 01:41:04;;;;;;;2.80;0.50;;;12.20;82.60;;;;;;4985415;28;20067;-84
2022/09/16 01:43:43;;;;;;;5.28;0.60;;;12.20;82.50;;;;;;4969127;28;20087;-85
2022/09/16 01:46:19;;;;;;;3.90;0.70;;;12.20;82.40;;;;;;4970607;28;20102;-84
2022/09/16 01:48:54;;;;;;;3.25;0.80;;;12.20;82.40;;;;;;4970531;28;20063;-84
2022/09/16 01:51:25;;;;;;;3.63;0.50;;;12.20;82.20;;;;;;4970200;28;20051;-84
2022/09/16 01:54:02;;;;;;;5.28;0.45;;;12.20;82.30;;;;;;4986774;28;20059;-84
2022/09/16 01:56:35;;;;;;;4.10;0.50;;;12.20;82.40;;;;;;4970737;28;20051;-84
2022/09/16 01:59:07;;;;;;;4.20;0.57;;;12.20;82.30;;;;;;4986423;28;20063;-85
2022/09/16 02:01:39;;;;;;;4.35;0.60;;;12.20;82.20;;;;;;4970467;28;20589;-84
2022/09/16 02:04:14;;;;;;;3.00;0.35;;;12.20;82.20;;;;;;4970242;28;20055;-84
2022/09/16 02:06:44;;;;;;;4.95;0.40;;;12.20;82.30;;;;;;4954838;28;20055;-84
2022/09/16 02:09:16;;;;;;;2.85;0.40;;;12.20;82.30;;;;;;4953764;28;20051;-84
2022/09/16 02:11:45;;;;;;;4.23;0.40;;;12.20;82.30;;;;;;4970218;28;20050;-84
2022/09/16 02:14:17;;;;;;;4.28;0.50;;;12.20;82.20;;;;;;4989694;28;20082;-84
2022/09/16 02:16:50;;;;;;;3.00;0.43;;;12.20;82.20;;;;;;4989706;28;20054;-85
2022/09/16 02:19:23;;;;;;;4.22;0.50;;;12.20;82.00;;;;;;4989955;28;20090;-84
2022/09/16 02:21:52;;;;;;;5.43;0.57;;;12.20;81.90;;;;;;4973500;28;20061;-84
2022/09/16 02:24:21;;;;;;;4.20;0.50;;;12.20;82.00;;;;;;4973570;28;20586;-84
2022/09/16 02:26:53;;;;;;;4.20;0.40;;;12.20;81.80;;;;;;4973368;28;20055;-84
2022/09/16 02:29:24;;;;;;;5.90;0.60;;;12.20;81.80;;;;;;4989277;28;20107;-85
2022/09/16 02:31:54;;;;;;;2.85;0.30;;;12.10;81.70;;;;;;4973170;28;20044;-84
2022/09/16 02:34:26;;;;;;;3.35;0.57;;;12.10;81.70;;;;;;4989619;28;20063;-84
2022/09/16 02:36:59;;;;;;;4.67;0.70;;;12.10;81.60;;;;;;4988848;28;20051;-84
2022/09/16 02:39:30;;;;;;;2.30;0.50;;;12.10;81.60;;;;;;4972820;28;20055;-84
2022/09/16 02:41:59;;;;;;;3.40;0.45;;;12.10;81.50;;;;;;4989413;28;20126;-84
2022/09/16 02:44:26;;;;;;;2.92;0.30;;;12.10;81.40;;;;;;4973174;28;20062;-84
2022/09/16 02:47:01;;;;;;;2.83;0.47;;;12.00;81.40;;;;;;4973300;28;20158;-84
2022/09/16 02:49:39;;;;;;;3.73;0.40;;;12.00;81.30;;;;;;4972938;28;20604;-84
2022/09/16 02:52:16;;;;;;;3.60;0.50;;;12.00;81.20;;;;;;4992765;28;20146;-84
2022/09/16 02:54:50;;;;;;;3.72;0.40;;;12.00;81.20;;;;;;4992773;28;20059;-84
2022/09/16 02:57:18;;;;;;;3.72;0.57;;;11.90;81.20;;;;;;4992496;28;20541;-84
2022/09/16 02:59:45;;;;;;;4.57;0.47;;;11.90;81.30;;;;;;4976067;28;20490;-84
2022/09/16 03:02:13;;;;;;;4.80;0.50;;;11.90;81.50;;;;;;4992346;28;20082;-84
2022/09/16 03:04:41;;;;;;;5.60;0.50;;;11.90;81.60;;;;;;5008714;28;20058;-84
2022/09/16 03:07:10;;;;;;;3.08;0.45;;;11.90;81.90;;;;;;4992515;28;20509;-84
2022/09/16 03:09:41;;;;;;;4.07;0.52;;;11.80;82.00;;;;;;4992405;28;20047;-84
2022/09/16 03:12:31;;;;;;;5.00;0.40;;;11.80;82.20;;;;;;4992276;28;20516;-84
2022/09/16 03:15:26;;;;;;;3.50;0.50;;;11.70;82.30;;;;;;4992167;28;20057;-84
2022/09/16 03:18:26;;;;;;;3.35;0.30;;;11.70;82.40;;;;;;4992468;28;20117;-84
2022/09/16 03:21:00;;;;;;;3.58;0.30;;;11.70;82.60;;;;;;4991842;28;20055;-84
2022/09/16 03:23:41;;;;;;;2.95;0.25;;;11.70;82.40;;;;;;4991925;28;20175;-84
2022/09/16 03:26:16;;;;;;;4.15;0.40;;;11.70;82.40;;;;;;4991807;28;20150;-84
2022/09/16 03:28:54;;;;;;;5.00;0.43;;;11.70;82.30;;;;;;4992223;28;20506;-85
2022/09/16 03:31:28;;;;;;;5.50;0.60;;;11.70;82.30;;;;;;4992000;28;20059;-84
2022/09/16 03:34:04;;;;;;;2.97;0.52;;;11.70;82.30;;;;;;4991810;28;20054;-84
2022/09/16 03:36:37;;;;;;;4.13;0.40;;;11.70;82.30;;;;;;4992135;28;20221;-84
2022/09/16 03:39:05;;;;;;;3.85;0.50;;;11.70;82.20;;;;;;4992044;28;20086;-84
2022/09/16 03:41:33;;;;;;;6.73;0.43;;;11.70;82.20;;;;;;4992108;28;20156;-84
2022/09/16 03:44:01;;;;;;;3.25;0.30;;;11.70;82.50;;;;;;4991713;28;20051;-84
2022/09/16 03:46:28;;;;;;;4.80;0.60;;;11.70;82.30;;;;;;4991836;28;20551;-84
2022/09/16 03:48:55;;;;;;;3.70;0.35;;;11.70;82.40;;;;;;4991945;28;20560;-84
2022/09/16 03:51:22;;;;;;;3.47;0.50;;;11.70;82.40;;;;;;4991675;28;20129;-84
2022/09/16 03:53:51;;;;;;;4.17;0.30;;;11.70;82.30;;;;;;5007888;28;20119;-84
2022/09/16 03:56:18;;;;;;;5.97;1.05;;;11.70;82.40;;;;;;4991423;28;20062;-84
2022/09/16 03:58:47;;;;;;;5.63;0.57;;;11.70;82.20;;;;;;5007884;28;20510;-84
2022/09/16 04:01:14;;;;;;;6.53;0.60;;;11.70;82.20;;;;;;4974620;28;20510;-84
2022/09/16 04:03:41;;;;;;;4.45;0.60;;;11.70;82.00;;;;;;4971855;28;20051;-84
2022/09/16 04:06:08;;;;;;;3.37;0.50;;;11.70;82.10;;;;;;4971976;28;20130;-84
2022/09/16 04:08:36;;;;;;;3.10;0.50;;;11.70;82.20;;;;;;4971952;28;20138;-84
2022/09/16 04:11:06;;;;;;;4.13;0.30;;;11.70;81.90;;;;;;4971164;28;20058;-84
2022/09/16 04:13:34;;;;;;;3.20;0.43;;;11.60;81.70;;;;;;4955768;28;20083;-84
2022/09/16 04:16:03;;;;;;;2.72;0.30;;;11.50;81.70;;;;;;4971462;28;20054;-84
2022/09/16 04:18:30;;;;;;;2.63;0.30;;;11.50;81.70;;;;;;4971721;28;20114;-84
2022/09/16 04:20:58;;;;;;;6.70;0.40;;;11.50;81.60;;;;;;4971748;28;20149;-84
2022/09/16 04:23:25;;;;;;;4.53;0.70;;;11.50;81.50;;;;;;4971648;28;20059;-84
2022/09/16 04:25:56;;;;;;;5.13;0.55;;;11.50;81.50;;;;;;4988143;28;20051;-84
2022/09/16 04:28:24;;;;;;;4.68;0.40;;;11.50;81.50;;;;;;4971476;28;20055;-84
2022/09/16 04:30:51;;;;;;;5.83;0.50;;;11.50;81.40;;;;;;4987804;28;20094;-84
2022/09/16 04:33:19;;;;;;;4.50;0.60;;;11.40;81.30;;;;;;4971836;28;20054;-84
2022/09/16 04:35:46;;;;;;;5.55;0.70;;;11.40;81.20;;;;;;4982584;28;20133;-84
2022/09/16 04:38:13;;;;;;;5.25;0.63;;;11.40;81.40;;;;;;4991091;28;20050;-84
2022/09/16 04:40:40;;;;;;;6.45;0.60;;;11.40;81.40;;;;;;4974507;28;20051;-84
2022/09/16 04:43:07;;;;;;;3.63;0.80;;;11.40;81.40;;;;;;4974395;28;20073;-84
2022/09/16 04:45:36;;;;;;;4.75;0.50;;;11.40;81.50;;;;;;4990192;28;20400;-84
2022/09/16 04:48:03;;;;;;;3.72;0.30;;;11.50;81.50;;;;;;4990880;28;20074;-84
2022/09/16 04:50:30;;;;;;;3.88;0.30;;;11.50;81.40;;;;;;4974047;28;20050;-84
2022/09/16 04:52:58;;;;;;;4.13;0.40;;;11.50;81.40;;;;;;4990361;28;20047;-83
2022/09/16 04:55:25;;;;;;;4.53;0.30;;;11.50;81.20;;;;;;4990738;28;20050;-83
2022/09/16 04:57:52;;;;;;;6.47;0.50;;;11.50;81.20;;;;;;4990388;28;20055;-83
2022/09/16 05:00:19;;;;;;;3.80;0.50;;;11.50;81.20;;;;;;4990439;28;20062;-83
2022/09/16 05:02:48;;;;;;;4.38;0.40;;;11.50;81.20;;;;;;4990478;28;20047;-82
2022/09/16 05:05:16;;;;;;;4.47;0.60;;;11.50;81.20;;;;;;4989882;28;20054;-83
2022/09/16 05:07:43;;;;;;;4.07;0.43;;;11.50;81.20;;;;;;4990409;28;20555;-83
2022/09/16 05:10:10;;;;;;;5.20;0.40;;;11.50;81.10;;;;;;4973446;28;20512;-83
2022/09/16 05:12:38;;;;;;;4.93;0.50;;;11.50;81.00;;;;;;4974037;28;20058;-83
2022/09/16 05:15:05;;;;;;;6.43;0.70;;;11.50;81.00;;;;;;4990361;28;20560;-83
2022/09/16 05:17:32;;;;;;;3.72;0.40;;;11.50;80.90;;;;;;4990509;28;20050;-83
2022/09/16 05:20:01;;;;;;;3.60;0.40;;;11.50;80.80;;;;;;4972830;28;20058;-83
2022/09/16 05:22:28;;;;;;;4.75;0.40;;;11.50;80.70;;;;;;4973873;28;20161;-83
2022/09/16 05:24:55;;;;;;;4.63;0.70;;;11.50;80.60;;;;;;4987348;28;20055;-83
2022/09/16 05:27:22;;;;;;;4.30;0.52;;;11.50;80.50;;;;;;4990431;28;20058;-83
2022/09/16 05:29:49;;;;;;;4.00;0.52;;;11.50;80.50;;;;;;4989362;28;20488;-83
2022/09/16 05:32:16;;;;;;;5.43;0.40;;;11.50;80.40;;;;;;5006596;28;20082;-83
2022/09/16 05:34:43;;;;;;;5.47;0.60;;;11.50;80.30;;;;;;4990290;28;20057;-83
2022/09/16 05:37:11;;;;;;;4.35;0.75;;;11.40;80.20;;;;;;4990093;28;20058;-83
2022/09/16 05:39:38;;;;;;;7.13;0.40;;;11.40;80.10;;;;;;4989782;28;20441;-83
2022/09/16 05:42:05;;;;;;;5.35;0.50;;;11.40;80.10;;;;;;4989624;28;20058;-83
2022/09/16 05:44:32;;;;;;;5.90;0.50;;;11.40;80.10;;;;;;4983046;28;20113;-82
2022/09/16 05:46:59;;;;;;;5.40;0.60;;;11.40;80.00;;;;;;4988479;28;20058;-83
2022/09/16 05:49:26;;;;;;;5.35;0.50;;;11.40;80.00;;;;;;4972587;28;20117;-83
2022/09/16 05:51:53;;;;;;;4.40;0.60;;;11.40;80.00;;;;;;4987180;28;20532;-83
2022/09/16 05:54:23;;;;;;;6.20;0.60;;;11.40;80.00;;;;;;4988862;28;20055;-82
2022/09/16 05:56:51;;;;;;;8.30;0.60;;;11.40;80.20;;;;;;4985843;28;20070;-82
2022/09/16 05:59:18;;;;;;;3.75;0.40;;;11.40;80.40;;;;;;4989177;28;20078;-85
2022/09/16 06:01:45;;;;;;;5.38;0.60;;;11.40;80.30;;;;;;4988570;28;20118;-85
2022/09/16 06:08:13;;;;;;;4.70;0.30;;;11.40;80.90;;;;;;4985013;28;20533;-84
2022/09/16 06:10:42;;;;;;;2.70;0.30;;;11.40;81.20;;;;;;4971193;28;20138;-83
2022/09/16 06:13:09;;;;;;;5.45;0.35;;;11.40;80.50;;;;;;4973280;28;20095;-84
2022/09/16 06:15:35;;;;;;;4.75;0.50;;;11.40;80.70;;;;;;4989119;28;20137;-83
2022/09/16 06:18:02;;;;;;;5.78;0.82;;;11.40;80.60;;;;;;4988717;28;20133;-84
2022/09/16 06:20:29;;;;;;;6.80;0.60;;;11.40;80.00;;;;;;4971998;28;20051;-82
2022/09/16 06:22:56;;;;;;;5.90;0.70;;;11.40;80.10;;;;;;4988565;28;20047;-82
2022/09/16 06:25:23;;;;;;;4.88;0.60;;;11.50;80.30;;;;;;4988366;28;20061;-82
2022/09/16 06:27:51;;;;;;;5.57;0.55;;;11.50;80.00;;;;;;4972114;28;20053;-83
2022/09/16 06:30:18;;;;;;;5.47;0.60;;;11.50;79.90;;;;;;4988009;28;20141;-82
2022/09/16 06:32:45;;;;;;;4.68;0.52;;;11.50;79.80;;;;;;5004589;28;20055;-88
2022/09/16 06:35:12;;;;;;;3.73;0.50;;;11.50;79.70;;;;;;4988904;28;20057;-86
2022/09/16 06:37:39;;;;;;;6.05;0.65;;;11.50;79.80;;;;;;4988293;28;20122;-86
2022/09/16 06:40:07;;;;;;;3.97;0.50;;;11.50;79.70;;;;;;4972240;28;20055;-85
2022/09/16 06:42:34;;;;;;;6.13;0.50;;;11.50;79.70;;;;;;4988352;28;20617;-84
2022/09/16 06:45:06;;;;;;;3.47;0.70;;;11.50;79.40;;;;;;4989901;28;20043;-83
2022/09/16 06:47:33;;;;;;;5.87;0.90;;;11.50;79.50;;;;;;4972010;28;20050;-83
2022/09/16 06:50:00;;;;;;;6.45;0.52;;;11.60;79.60;;;;;;4988216;28;20145;-83
2022/09/16 06:52:27;;;;;;;5.03;0.57;;;11.60;79.70;;;;;;4972313;28;20585;-83
2022/09/16 06:54:54;;;;;;;5.25;0.65;;;11.70;79.90;;;;;;4987743;28;20410;-83
2022/09/16 06:57:22;;;;;;;5.55;0.63;;;11.70;79.90;;;;;;4988911;28;20057;-81
2022/09/16 06:59:50;;;;;;;5.57;0.50;;;11.70;79.80;;;;;;4988620;28;20059;-81
2022/09/16 07:02:18;;;;;;;4.10;0.60;;;11.70;79.80;;;;;;4989925;28;20051;-83
2022/09/16 07:04:45;;;;;;;4.35;0.70;;;11.80;80.00;;;;;;4976490;28;20081;-82
2022/09/16 07:07:12;;;;;;;5.38;0.50;;;11.90;79.40;;;;;;4992909;28;20505;-83
2022/09/16 07:09:40;;;;;;;8.30;0.77;;;11.90;79.20;;;;;;4992644;28;20062;-81
2022/09/16 07:12:08;;;;;;;7.43;0.43;;;11.90;79.10;;;;;;4990876;28;20059;-83
2022/09/16 07:14:36;;;;;;;6.00;0.65;;;11.90;78.90;;;;;;4976951;28;20137;-85
2022/09/16 07:17:04;;;;;;;5.00;0.45;;;12.00;78.70;;;;;;4992832;28;20055;-82
2022/09/16 07:19:32;;;;;;;7.32;0.77;;;12.00;78.90;;;;;;4972603;28;20075;-83
2022/09/16 07:21:59;;;;;;;5.05;0.43;;;12.10;78.70;;;;;;4992809;28;20090;-84
2022/09/16 07:24:27;;;;;;;7.20;0.50;;;12.10;78.40;;;;;;4992262;28;20066;-85
2022/09/16 07:26:58;;;;;;;4.55;0.43;;;12.20;78.40;;;;;;4975929;28;20054;-84
2022/09/16 07:29:26;;;;;;;2.55;0.50;;;12.20;78.20;;;;;;4974738;28;20047;-81
2022/09/16 07:31:53;;;;;;;5.15;0.60;;;12.20;78.40;;;;;;4991101;28;20055;-82
2022/09/16 07:34:20;;;;;;;7.30;0.75;;;12.30;78.10;;;;;;4990948;28;20051;-83
2022/09/16 07:36:49;;;;;;;7.67;0.90;;;12.30;78.10;;;;;;4975269;28;20047;-81
2022/09/16 07:39:18;;;;;;;5.82;0.40;;;12.50;77.80;;;;;;4991620;28;20130;-82
2022/09/16 07:41:47;;;;;;;2.53;0.38;;;12.50;78.00;;;;;;4992656;28;20453;-83
2022/09/16 07:44:16;;;;;;;6.90;0.43;;;12.50;77.40;;;;;;4975835;28;20082;-84
2022/09/16 07:46:44;;;;;;;5.75;0.50;;;12.50;77.00;;;;;;4976322;28;20729;-84
2022/09/16 07:49:14;;;;;;;6.07;0.57;;;12.60;77.10;;;;;;4976003;28;20093;-81
2022/09/16 07:51:41;;;;;;;4.43;0.30;;;12.70;77.00;;;;;;4994121;28;20047;-82
2022/09/16 07:54:15;;;;;;;6.10;0.60;;;12.80;77.10;;;;;;4993239;28;20051;-86
2022/09/16 07:56:44;;;;;;;5.50;0.60;;;12.80;77.00;;;;;;4992847;28;20079;-85
2022/09/16 07:59:13;;;;;;;7.05;0.60;;;12.90;75.70;;;;;;4976077;28;20703;-85
2022/09/16 08:01:40;;;;;;;7.33;0.67;;;12.90;76.50;;;;;;4976209;28;20081;-87
2022/09/16 08:04:07;;;;;;;7.53;0.82;;;13.00;76.50;;;;;;4975481;28;20133;-85
2022/09/16 08:06:38;;;;;;;9.02;0.80;;;13.10;76.50;;;;;;4974832;28;20502;-85
2022/09/16 08:09:05;;;;;;;3.65;0.50;;;13.10;76.20;;;;;;4990256;28;20051;-83
2022/09/16 08:11:34;;;;;;;12.77;0.77;;;13.20;75.70;;;;;;4974437;28;20055;-84
2022/09/16 08:14:01;;;;;;;4.10;0.47;;;13.30;75.50;;;;;;4989385;28;20512;-84
2022/09/16 08:16:29;;;;;;;10.05;0.77;;;13.40;74.20;;;;;;4974655;28;20054;-83
2022/09/16 08:18:58;;;;;;;5.43;0.57;;;13.50;74.80;;;;;;4976291;28;20174;-87
2022/09/16 08:21:27;;;;;;;5.45;0.40;;;13.50;75.20;;;;;;5007649;28;20063;-85
2022/09/16 08:23:56;;;;;;;6.13;0.60;;;13.60;74.20;;;;;;4991811;28;20912;-83
2022/09/16 08:26:27;;;;;;;3.17;0.20;;;13.70;72.70;;;;;;4993067;28;20111;-86
2022/09/16 08:29:05;;;;;;;7.25;0.85;;;13.70;71.70;;;;;;4956764;28;20172;-87
2022/09/16 08:31:34;;;;;;;8.98;1.00;;;13.80;71.50;;;;;;4972721;28;20445;-86
2022/09/16 08:34:01;;;;;;;5.93;0.70;;;13.90;71.50;;;;;;4972428;28;20050;-83
2022/09/16 08:36:28;;;;;;;4.18;0.60;;;13.90;70.50;;;;;;4972481;28;20134;-84
2022/09/16 08:38:56;;;;;;;8.93;0.63;;;13.90;70.60;;;;;;4987380;28;20050;-83
2022/09/16 08:41:41;;;;;;;7.53;0.75;;;14.00;71.20;;;;;;4991630;28;20058;-83
2022/09/16 08:44:22;;;;;;;5.00;0.60;;;14.10;70.70;;;;;;4991113;28;20051;-83
2022/09/16 08:46:53;;;;;;;6.43;0.60;;;14.10;69.70;;;;;;4975463;28;20057;-84
2022/09/16 08:49:29;;;;;;;5.93;0.73;;;14.20;70.40;;;;;;4973645;28;20101;-85
2022/09/16 08:51:58;;;;;;;4.73;0.60;;;14.20;70.00;;;;;;4991134;28;20600;-84
2022/09/16 08:54:30;;;;;;;6.38;1.00;;;14.30;70.20;;;;;;4992802;28;20054;-82
2022/09/16 08:57:00;;;;;;;3.60;0.47;;;14.30;68.30;;;;;;4975087;28;20113;-81
2022/09/16 08:59:35;;;;;;;7.28;0.47;;;14.40;67.70;;;;;;4989385;28;20104;-80
2022/09/16 09:02:21;;;;;;;8.35;1.08;;;14.40;67.30;;;;;;5003937;28;20058;-81
2022/09/16 09:04:48;;;;;;;5.67;0.83;;;14.40;65.40;;;;;;4989783;28;20110;-81
2022/09/16 09:07:27;;;;;;;6.82;0.93;;;14.40;65.00;;;;;;4992426;28;20074;-81
2022/09/16 09:10:03;;;;;;;4.65;0.60;;;14.40;62.60;;;;;;4990594;28;20050;-81
2022/09/16 09:12:37;;;;;;;3.17;0.50;;;14.40;59.20;;;;;;4990695;28;20055;-79
2022/09/16 09:15:21;;;;;;;7.15;0.55;;;14.40;60.20;;;;;;5000948;28;20126;-81
2022/09/16 09:18:00;;;;;;;7.03;0.67;;;14.40;61.80;;;;;;5006901;28;20086;-81
2022/09/16 09:20:36;;;;;;;6.95;0.80;;;14.40;61.00;;;;;;5006978;28;20058;-80
2022/09/16 09:23:25;;;;;;;7.10;0.70;;;14.40;60.30;;;;;;5005390;28;20105;-81
2022/09/16 09:25:58;;;;;;;7.22;0.75;;;14.50;61.90;;;;;;4991055;28;20134;-81
2022/09/16 09:28:50;;;;;;;6.43;0.80;;;14.50;62.20;;;;;;4989600;28;20533;-81
2022/09/16 09:31:31;;;;;;;3.47;0.50;;;14.50;61.00;;;;;;5005613;28;20100;-81
2022/09/16 09:34:06;;;;;;;4.88;0.85;;;14.60;60.40;;;;;;5005540;28;20145;-81
2022/09/16 09:36:48;;;;;;;4.95;0.52;;;14.60;58.20;;;;;;4989905;28;20051;-81
2022/09/16 09:39:38;;;;;;;4.55;0.73;;;14.70;57.30;;;;;;5007342;28;20109;-80
2022/09/16 09:42:12;;;;;;;6.00;0.88;;;14.70;58.70;;;;;;5007353;28;20074;-81
2022/09/16 09:44:47;;;;;;;1.53;0.20;;;14.80;57.50;;;;;;5007386;28;20123;-80
2022/09/16 09:47:22;;;;;;;5.57;0.55;;;14.90;57.40;;;;;;4992298;28;20137;-80
2022/09/16 09:49:53;;;;;;;8.13;0.80;;;14.90;57.20;;;;;;5007128;28;20051;-80
2022/09/16 09:52:26;;;;;;;5.53;0.60;;;15.00;57.30;;;;;;5007081;28;20430;-81
2022/09/16 09:54:53;;;;;;;4.90;0.50;;;15.00;57.30;;;;;;5007243;28;20053;-81
2022/09/16 09:57:29;;;;;;;5.40;0.60;;;15.00;56.40;;;;;;4990779;28;20058;-82
2022/09/16 10:00:03;;;;;;;5.70;0.40;;;15.10;54.10;;;;;;4992008;28;20061;-81
2022/09/16 10:02:43;;;;;;;4.57;0.50;;;15.20;55.90;;;;;;4990782;28;20434;-80
2022/09/16 10:05:18;;;;;;;4.22;0.45;;;15.20;55.90;;;;;;4974066;28;20043;-81
2022/09/16 10:07:45;;;;;;;6.95;1.05;;;15.30;56.00;;;;;;4990330;28;20051;-81
2022/09/16 10:10:15;;;;;;;7.93;0.63;;;15.40;56.50;;;;;;4990464;28;20058;-81
2022/09/16 10:12:43;;;;;;;6.63;0.70;;;15.40;57.10;;;;;;5007111;28;20146;-81
2022/09/16 10:15:21;;;;;;;4.95;0.88;;;15.50;55.30;;;;;;4990359;28;20106;-81
2022/09/16 10:17:51;;;;;;;5.38;0.70;;;15.50;54.10;;;;;;5006873;28;20051;-81
2022/09/16 10:20:27;;;;;;;6.80;0.60;;;15.50;54.10;;;;;;5006591;28;20145;-81
2022/09/16 10:23:00;;;;;;;5.90;0.50;;;15.50;54.70;;;;;;4989032;28;20053;-80
2022/09/16 10:25:29;;;;;;;9.00;0.73;;;15.50;57.00;;;;;;4990850;28;20081;-81
2022/09/16 10:28:00;;;;;;;6.05;0.57;;;15.40;59.10;;;;;;4974299;28;20082;-82
2022/09/16 10:30:28;;;;;;;4.75;0.88;;;15.30;60.10;;;;;;4990082;28;20198;-82
2022/09/16 10:33:00;;;;;;;5.80;0.85;;;15.00;60.50;;;;;;5007035;28;20057;-82
2022/09/16 10:35:29;;;;;;;7.70;0.70;;;14.90;62.10;;;;;;4993854;28;20057;-82
2022/09/16 10:37:58;;;;;;;5.82;0.60;;;14.80;62.60;;;;;;4993932;28;20059;-83
2022/09/16 10:40:26;;;;;;;6.45;0.88;;;14.70;63.80;;;;;;4977300;28;20051;-84
2022/09/16 10:42:57;;;;;;;4.57;0.65;;;14.70;65.10;;;;;;5010274;28;20055;-83
2022/09/16 10:45:27;;;;;;;7.15;0.50;;;14.60;64.80;;;;;;4977270;28;20050;-83
2022/09/16 10:47:58;;;;;;;9.53;0.73;;;14.60;64.70;;;;;;5010373;28;20120;-82
2022/09/16 10:50:26;;;;;;;5.53;1.05;;;14.70;64.20;;;;;;4993679;28;20521;-83
2022/09/16 10:52:54;;;;;;;4.93;0.60;;;14.70;63.50;;;;;;4993875;28;20062;-82
2022/09/16 10:55:25;;;;;;;4.03;0.60;;;14.70;64.80;;;;;;4993568;28;20073;-82
2022/09/16 10:57:52;;;;;;;5.70;0.60;;;14.80;64.90;;;;;;5010126;28;20058;-82
2022/09/16 11:00:21;;;;;;;5.27;0.97;;;14.90;64.50;;;;;;4977056;28;20051;-83
2022/09/16 11:03:25;;;;;;;6.28;0.90;;;15.00;62.00;;;;;;5009900;28;20079;-83
2022/09/16 11:06:10;;;;;;;6.82;0.73;;;15.00;61.50;;;;;;4993253;28;20057;-83
2022/09/16 11:08:55;;;;;;;5.97;0.70;;;15.20;61.00;;;;;;4993226;28;20495;-82
2022/09/16 11:11:34;;;;;;;8.55;0.93;;;15.30;61.80;;;;;;4993218;28;20062;-83
2022/09/16 11:14:10;;;;;;;7.43;0.80;;;15.30;60.50;;;;;;4993326;28;20680;-82
2022/09/16 11:16:56;;;;;;;5.20;0.45;;;15.40;60.60;;;;;;4993198;28;20047;-82
2022/09/16 11:19:32;;;;;;;5.40;0.85;;;15.50;60.70;;;;;;5009451;28;20082;-82
2022/09/16 11:22:13;;;;;;;4.38;0.52;;;15.50;61.60;;;;;;4993259;28;20056;-82
2022/09/16 11:25:16;;;;;;;5.18;0.50;;;15.60;63.00;;;;;;4993191;28;20063;-82
2022/09/16 11:27:51;;;;;;;5.03;0.50;;;15.70;60.20;;;;;;4947043;28;20051;-81
2022/09/16 11:30:20;;;;;;;4.55;0.70;;;15.80;59.10;;;;;;4997479;28;20059;-88
2022/09/16 11:33:03;;;;;;;4.40;0.50;;;15.80;57.30;;;;;;4989188;28;20051;-89
2022/09/16 11:35:56;;;;;;;2.65;0.40;;;15.80;55.10;;;;;;4989676;28;20058;-86
2022/09/16 11:38:37;;;;;;;6.47;0.85;;;15.80;56.50;;;;;;4973095;28;20154;-86
2022/09/16 11:41:14;;;;;;;6.57;0.60;;;15.80;57.30;;;;;;4987674;28;20086;-83
2022/09/16 11:44:05;;;;;;;4.43;0.50;;;15.90;57.10;;;;;;4991299;28;20553;-82
2022/09/16 11:46:38;;;;;;;3.88;0.80;;;16.00;56.90;;;;;;5005328;28;20098;-82
2022/09/16 11:49:21;;;;;;;8.02;0.85;;;16.00;57.40;;;;;;4989881;28;20058;-83
2022/09/16 11:52:00;;;;;;;2.97;0.55;;;16.00;58.10;;;;;;4989618;28;20043;-83
2022/09/16 11:54:46;;;;;;;2.67;0.30;;;16.00;59.00;;;;;;5006219;28;20530;-82
2022/09/16 11:57:17;;;;;;;5.05;0.80;;;15.90;59.10;;;;;;4989072;28;20051;-81
2022/09/16 11:59:53;;;;;;;7.75;0.90;;;15.80;59.80;;;;;;4992487;28;20051;-83
2022/09/16 12:02:24;;;;;;;3.25;0.30;;;15.80;60.50;;;;;;4988449;28;20039;-84
2022/09/16 12:05:00;;;;;;;8.35;0.60;;;15.80;61.00;;;;;;4987334;28;20138;-82
2022/09/16 12:07:36;;;;;;;6.40;0.83;;;15.80;60.80;;;;;;4990081;28;20059;-82
2022/09/16 12:10:08;;;;;;;5.93;0.73;;;15.80;61.00;;;;;;4990152;28;20074;-84
2022/09/16 12:12:41;;;;;;;4.05;0.50;;;16.00;57.80;;;;;;4991430;28;20061;-85
2022/09/16 12:15:17;;;;;;;5.97;0.68;;;16.00;56.90;;;;;;4991156;28;20057;-83
2022/09/16 12:17:52;;;;;;;3.38;0.60;;;16.10;57.60;;;;;;4990346;28;20585;-83
2022/09/16 12:20:24;;;;;;;4.00;0.50;;;16.10;60.50;;;;;;4974309;28;20106;-83
2022/09/16 12:22:57;;;;;;;5.55;0.57;;;16.00;60.30;;;;;;4990390;28;20062;-83
2022/09/16 12:25:29;;;;;;;3.08;0.40;;;15.80;60.40;;;;;;4973833;28;20182;-82
2022/09/16 12:28:00;;;;;;;4.63;0.38;;;15.70;61.30;;;;;;4984133;28;20448;-84
2022/09/16 12:30:31;;;;;;;5.22;0.82;;;15.50;61.20;;;;;;4973664;28;20134;-83
2022/09/16 12:33:04;;;;;;;3.23;0.43;;;15.40;61.60;;;;;;4991981;28;20055;-83
2022/09/16 12:35:34;;;;;;;5.15;0.60;;;15.20;62.10;;;;;;4988952;28;20147;-86
2022/09/16 12:38:03;;;;;;;4.35;0.47;;;15.00;63.30;;;;;;4988678;28;20137;-85
2022/09/16 12:40:44;;;;;;;5.05;0.70;;;14.90;64.90;;;;;;4956072;28;20059;-86
2022/09/16 12:43:34;;;;;;;6.50;0.57;;;14.90;65.70;;;;;;4973364;28;20054;-87
2022/09/16 12:46:27;;;;;;;2.70;0.30;;;14.90;65.40;;;;;;4986354;28;20180;-86
2022/09/16 12:49:24;;;;;;;5.55;0.80;;;15.00;65.80;;;;;;4984933;28;20151;-86
2022/09/16 12:52:17;;;;;;;4.45;0.63;;;15.00;65.80;;;;;;4958752;28;20058;-81
2022/09/16 12:55:10;;;;;;;4.35;0.70;;;15.10;65.20;;;;;;5007930;28;20059;-84
2022/09/16 12:58:03;;;;;;;6.55;0.98;;;15.20;65.40;;;;;;4977649;28;20532;-83
2022/09/16 13:00:36;;;;;;;5.63;0.53;;;15.30;65.10;;;;;;4972065;28;20058;-82
2022/09/16 13:03:10;;;;;;;6.13;0.68;;;15.40;63.00;;;;;;4988145;28;20047;-80
2022/09/16 13:05:38;;;;;;;5.35;0.70;;;15.40;60.70;;;;;;4991627;28;20051;-80
2022/09/16 13:08:16;;;;;;;6.78;0.73;;;15.40;60.40;;;;;;4991494;28;20054;-82
2022/09/16 13:10:45;;;;;;;7.43;0.93;;;15.40;60.00;;;;;;4991345;28;20054;-82
2022/09/16 13:13:24;;;;;;;5.83;1.07;;;15.50;59.60;;;;;;4990448;28;20050;-80
2022/09/16 13:15:56;;;;;;;13.35;1.30;;;15.50;59.10;;;;;;4974666;28;20065;-80